sensor_id;sensor_type;location;lat;lon;timestamp;P1;durP1;ratioP1;P2;durP2;ratioP2
24585;SDS011;12743;52.262;6.172;2023-06-04T00:02:15;2.35;;;0.60;;
24585;SDS011;12743;52.262;6.172;2023-06-04T00:04:42;3.60;;;1.00;;
24585;SDS011;12743;52.262;6.172;2023-06-04T00:07:09;3.37;;;0.70;;
24585;SDS011;12743;52.262;6.172;2023-06-04T00:09:36;5.07;;;1.23;;
24585;SDS011;12743;52.262;6.172;2023-06-04T00:12:04;3.97;;;0.90;;
24585;SDS011;12743;52.262;6.172;2023-06-04T00:14:32;3.38;;;0.80;;
24585;SDS011;12743;52.262;6.172;2023-06-04T00:16:58;3.45;;;1.27;;
24585;SDS011;12743;52.262;6.172;2023-06-04T00:19:26;3.87;;;0.80;;
24585;SDS011;12743;52.262;6.172;2023-06-04T00:21:53;4.43;;;0.80;;
24585;SDS011;12743;52.262;6.172;2023-06-04T00:24:20;2.75;;;0.88;;
24585;SDS011;12743;52.262;6.172;2023-06-04T00:26:46;5.05;;;0.90;;
24585;SDS011;12743;52.262;6.172;2023-06-04T00:29:13;4.88;;;0.70;;
24585;SDS011;12743;52.262;6.172;2023-06-04T00:31:40;6.43;;;1.10;;
24585;SDS011;12743;52.262;6.172;2023-06-04T00:34:06;3.30;;;0.90;;
24585;SDS011;12743;52.262;6.172;2023-06-04T00:36:34;2.63;;;0.80;;
24585;SDS011;12743;52.262;6.172;2023-06-04T00:39:00;4.70;;;0.88;;
24585;SDS011;12743;52.262;6.172;2023-06-04T00:41:29;5.28;;;0.80;;
24585;SDS011;12743;52.262;6.172;2023-06-04T00:43:56;3.10;;;0.80;;
24585;SDS011;12743;52.262;6.172;2023-06-04T00:46:26;5.57;;;1.00;;
24585;SDS011;12743;52.262;6.172;2023-06-04T00:48:53;4.05;;;1.02;;
24585;SDS011;12743;52.262;6.172;2023-06-04T00:51:21;2.42;;;0.80;;
24585;SDS011;12743;52.262;6.172;2023-06-04T00:53:49;4.25;;;1.15;;
24585;SDS011;12743;52.262;6.172;2023-06-04T00:56:17;3.20;;;0.90;;
24585;SDS011;12743;52.262;6.172;2023-06-04T00:58:44;3.72;;;0.68;;
24585;SDS011;12743;52.262;6.172;2023-06-04T01:01:23;4.32;;;0.70;;
24585;SDS011;12743;52.262;6.172;2023-06-04T01:03:54;4.32;;;0.80;;
24585;SDS011;12743;52.262;6.172;2023-06-04T01:06:32;5.13;;;0.98;;
24585;SDS011;12743;52.262;6.172;2023-06-04T01:09:04;6.70;;;0.90;;
24585;SDS011;12743;52.262;6.172;2023-06-04T01:11:35;4.68;;;1.00;;
24585;SDS011;12743;52.262;6.172;2023-06-04T01:14:04;4.20;;;0.93;;
24585;SDS011;12743;52.262;6.172;2023-06-04T01:16:36;6.13;;;1.00;;
24585;SDS011;12743;52.262;6.172;2023-06-04T01:19:06;4.55;;;0.90;;
24585;SDS011;12743;52.262;6.172;2023-06-04T01:21:57;5.00;;;0.90;;
24585;SDS011;12743;52.262;6.172;2023-06-04T01:24:29;6.00;;;1.02;;
24585;SDS011;12743;52.262;6.172;2023-06-04T01:27:04;3.75;;;1.20;;
24585;SDS011;12743;52.262;6.172;2023-06-04T01:29:33;4.05;;;1.10;;
24585;SDS011;12743;52.262;6.172;2023-06-04T01:32:02;4.55;;;0.90;;
24585;SDS011;12743;52.262;6.172;2023-06-04T01:34:30;3.50;;;1.00;;
24585;SDS011;12743;52.262;6.172;2023-06-04T01:36:58;4.50;;;1.20;;
24585;SDS011;12743;52.262;6.172;2023-06-04T01:39:24;3.58;;;1.00;;
24585;SDS011;12743;52.262;6.172;2023-06-04T01:41:51;4.88;;;1.15;;
24585;SDS011;12743;52.262;6.172;2023-06-04T01:44:18;3.67;;;1.10;;
24585;SDS011;12743;52.262;6.172;2023-06-04T01:46:44;5.40;;;1.07;;
24585;SDS011;12743;52.262;6.172;2023-06-04T01:49:11;4.50;;;1.10;;
24585;SDS011;12743;52.262;6.172;2023-06-04T01:51:38;3.50;;;1.00;;
24585;SDS011;12743;52.262;6.172;2023-06-04T01:54:04;5.00;;;0.75;;
24585;SDS011;12743;52.262;6.172;2023-06-04T01:56:31;5.30;;;1.38;;
24585;SDS011;12743;52.262;6.172;2023-06-04T01:58:58;5.10;;;1.23;;
24585;SDS011;12743;52.262;6.172;2023-06-04T02:01:27;4.25;;;1.02;;
24585;SDS011;12743;52.262;6.172;2023-06-04T02:03:54;3.75;;;0.90;;
24585;SDS011;12743;52.262;6.172;2023-06-04T02:06:21;3.75;;;1.13;;
24585;SDS011;12743;52.262;6.172;2023-06-04T02:08:47;4.28;;;1.05;;
24585;SDS011;12743;52.262;6.172;2023-06-04T02:11:14;4.47;;;0.80;;
24585;SDS011;12743;52.262;6.172;2023-06-04T02:13:41;4.38;;;1.20;;
24585;SDS011;12743;52.262;6.172;2023-06-04T02:16:08;4.03;;;1.20;;
24585;SDS011;12743;52.262;6.172;2023-06-04T02:18:36;3.47;;;1.17;;
24585;SDS011;12743;52.262;6.172;2023-06-04T02:21:03;4.05;;;1.00;;
24585;SDS011;12743;52.262;6.172;2023-06-04T02:23:30;4.00;;;1.30;;
24585;SDS011;12743;52.262;6.172;2023-06-04T02:25:57;5.28;;;0.88;;
24585;SDS011;12743;52.262;6.172;2023-06-04T02:28:24;5.43;;;1.38;;
24585;SDS011;12743;52.262;6.172;2023-06-04T02:30:51;5.25;;;1.30;;
24585;SDS011;12743;52.262;6.172;2023-06-04T02:33:17;4.75;;;1.00;;
24585;SDS011;12743;52.262;6.172;2023-06-04T02:35:44;3.80;;;1.07;;
24585;SDS011;12743;52.262;6.172;2023-06-04T02:38:11;3.45;;;1.05;;
24585;SDS011;12743;52.262;6.172;2023-06-04T02:40:38;4.53;;;1.10;;
24585;SDS011;12743;52.262;6.172;2023-06-04T02:43:05;4.18;;;0.90;;
24585;SDS011;12743;52.262;6.172;2023-06-04T02:45:32;4.43;;;1.40;;
24585;SDS011;12743;52.262;6.172;2023-06-04T02:47:58;3.40;;;1.20;;
24585;SDS011;12743;52.262;6.172;2023-06-04T02:50:26;3.15;;;1.10;;
24585;SDS011;12743;52.262;6.172;2023-06-04T02:52:53;4.50;;;1.00;;
24585;SDS011;12743;52.262;6.172;2023-06-04T02:55:20;3.20;;;1.10;;
24585;SDS011;12743;52.262;6.172;2023-06-04T02:57:48;5.95;;;1.10;;
24585;SDS011;12743;52.262;6.172;2023-06-04T03:00:15;3.87;;;1.10;;
24585;SDS011;12743;52.262;6.172;2023-06-04T03:02:43;3.75;;;1.05;;
24585;SDS011;12743;52.262;6.172;2023-06-04T03:05:12;5.40;;;1.20;;
24585;SDS011;12743;52.262;6.172;2023-06-04T03:07:41;3.88;;;1.10;;
24585;SDS011;12743;52.262;6.172;2023-06-04T03:10:10;6.53;;;1.40;;
24585;SDS011;12743;52.262;6.172;2023-06-04T03:12:38;6.00;;;1.30;;
24585;SDS011;12743;52.262;6.172;2023-06-04T03:15:05;6.50;;;1.20;;
24585;SDS011;12743;52.262;6.172;2023-06-04T03:17:32;6.10;;;1.52;;
24585;SDS011;12743;52.262;6.172;2023-06-04T03:19:59;4.70;;;1.00;;
24585;SDS011;12743;52.262;6.172;2023-06-04T03:22:29;4.18;;;1.02;;
24585;SDS011;12743;52.262;6.172;2023-06-04T03:24:56;5.53;;;1.33;;
24585;SDS011;12743;52.262;6.172;2023-06-04T03:27:22;5.47;;;1.08;;
24585;SDS011;12743;52.262;6.172;2023-06-04T03:29:49;3.92;;;1.33;;
24585;SDS011;12743;52.262;6.172;2023-06-04T03:32:17;5.78;;;1.42;;
24585;SDS011;12743;52.262;6.172;2023-06-04T03:34:45;6.25;;;1.40;;
24585;SDS011;12743;52.262;6.172;2023-06-04T03:37:12;5.47;;;1.20;;
24585;SDS011;12743;52.262;6.172;2023-06-04T03:39:39;8.35;;;1.42;;
24585;SDS011;12743;52.262;6.172;2023-06-04T03:42:08;4.25;;;1.20;;
24585;SDS011;12743;52.262;6.172;2023-06-04T03:44:35;6.35;;;1.55;;
24585;SDS011;12743;52.262;6.172;2023-06-04T03:47:03;5.85;;;1.60;;
24585;SDS011;12743;52.262;6.172;2023-06-04T03:49:30;6.57;;;1.50;;
24585;SDS011;12743;52.262;6.172;2023-06-04T03:51:56;6.05;;;1.58;;
24585;SDS011;12743;52.262;6.172;2023-06-04T03:54:24;4.63;;;1.40;;
24585;SDS011;12743;52.262;6.172;2023-06-04T03:56:51;5.32;;;1.45;;
24585;SDS011;12743;52.262;6.172;2023-06-04T03:59:18;5.20;;;1.20;;
24585;SDS011;12743;52.262;6.172;2023-06-04T04:01:45;8.47;;;1.80;;
24585;SDS011;12743;52.262;6.172;2023-06-04T04:04:12;6.38;;;1.63;;
24585;SDS011;12743;52.262;6.172;2023-06-04T04:06:39;6.05;;;1.65;;
24585;SDS011;12743;52.262;6.172;2023-06-04T04:09:06;6.13;;;1.85;;
24585;SDS011;12743;52.262;6.172;2023-06-04T04:11:34;6.00;;;1.63;;
24585;SDS011;12743;52.262;6.172;2023-06-04T04:14:02;8.63;;;1.90;;
24585;SDS011;12743;52.262;6.172;2023-06-04T04:16:29;6.70;;;1.70;;
24585;SDS011;12743;52.262;6.172;2023-06-04T04:18:56;6.97;;;2.30;;
24585;SDS011;12743;52.262;6.172;2023-06-04T04:21:23;8.75;;;2.67;;
24585;SDS011;12743;52.262;6.172;2023-06-04T04:23:50;6.00;;;1.73;;
24585;SDS011;12743;52.262;6.172;2023-06-04T04:26:18;15.30;;;2.30;;
24585;SDS011;12743;52.262;6.172;2023-06-04T04:28:49;10.20;;;1.73;;
24585;SDS011;12743;52.262;6.172;2023-06-04T04:31:19;6.65;;;2.20;;
24585;SDS011;12743;52.262;6.172;2023-06-04T04:33:49;6.75;;;2.08;;
24585;SDS011;12743;52.262;6.172;2023-06-04T04:36:18;8.73;;;2.22;;
24585;SDS011;12743;52.262;6.172;2023-06-04T04:38:50;8.07;;;1.83;;
24585;SDS011;12743;52.262;6.172;2023-06-04T04:41:27;6.13;;;1.90;;
24585;SDS011;12743;52.262;6.172;2023-06-04T04:44:02;8.32;;;2.30;;
24585;SDS011;12743;52.262;6.172;2023-06-04T04:46:29;6.88;;;1.98;;
24585;SDS011;12743;52.262;6.172;2023-06-04T04:48:56;10.50;;;2.50;;
24585;SDS011;12743;52.262;6.172;2023-06-04T04:51:23;7.70;;;2.40;;
24585;SDS011;12743;52.262;6.172;2023-06-04T04:53:51;8.00;;;2.40;;
24585;SDS011;12743;52.262;6.172;2023-06-04T04:56:18;7.85;;;2.38;;
24585;SDS011;12743;52.262;6.172;2023-06-04T04:58:48;7.07;;;2.30;;
24585;SDS011;12743;52.262;6.172;2023-06-04T05:01:16;6.18;;;2.22;;
24585;SDS011;12743;52.262;6.172;2023-06-04T05:03:44;8.90;;;2.63;;
24585;SDS011;12743;52.262;6.172;2023-06-04T05:06:13;6.50;;;2.22;;
24585;SDS011;12743;52.262;6.172;2023-06-04T05:08:40;8.45;;;2.13;;
24585;SDS011;12743;52.262;6.172;2023-06-04T05:11:09;5.88;;;1.85;;
24585;SDS011;12743;52.262;6.172;2023-06-04T05:13:37;7.47;;;1.92;;
24585;SDS011;12743;52.262;6.172;2023-06-04T05:16:05;8.50;;;2.40;;
24585;SDS011;12743;52.262;6.172;2023-06-04T05:18:37;10.10;;;2.47;;
24585;SDS011;12743;52.262;6.172;2023-06-04T05:21:09;8.18;;;2.17;;
24585;SDS011;12743;52.262;6.172;2023-06-04T05:23:42;6.35;;;2.20;;
24585;SDS011;12743;52.262;6.172;2023-06-04T05:26:11;6.72;;;2.10;;
24585;SDS011;12743;52.262;6.172;2023-06-04T05:28:38;6.67;;;2.20;;
24585;SDS011;12743;52.262;6.172;2023-06-04T05:31:11;5.88;;;1.80;;
24585;SDS011;12743;52.262;6.172;2023-06-04T05:33:40;7.97;;;2.10;;
24585;SDS011;12743;52.262;6.172;2023-06-04T05:36:11;10.20;;;2.50;;
24585;SDS011;12743;52.262;6.172;2023-06-04T05:38:46;6.50;;;2.15;;
24585;SDS011;12743;52.262;6.172;2023-06-04T05:41:15;5.63;;;2.30;;
24585;SDS011;12743;52.262;6.172;2023-06-04T05:43:43;7.90;;;2.20;;
24585;SDS011;12743;52.262;6.172;2023-06-04T05:46:13;6.97;;;2.22;;
24585;SDS011;12743;52.262;6.172;2023-06-04T05:48:41;10.02;;;2.22;;
24585;SDS011;12743;52.262;6.172;2023-06-04T05:51:08;5.97;;;1.80;;
24585;SDS011;12743;52.262;6.172;2023-06-04T05:53:37;7.10;;;2.53;;
24585;SDS011;12743;52.262;6.172;2023-06-04T05:56:04;7.40;;;2.25;;
24585;SDS011;12743;52.262;6.172;2023-06-04T05:58:34;6.93;;;1.73;;
24585;SDS011;12743;52.262;6.172;2023-06-04T06:01:02;5.53;;;1.85;;
24585;SDS011;12743;52.262;6.172;2023-06-04T06:03:29;7.15;;;1.77;;
24585;SDS011;12743;52.262;6.172;2023-06-04T06:05:56;13.40;;;1.90;;
24585;SDS011;12743;52.262;6.172;2023-06-04T06:08:26;7.45;;;2.17;;
24585;SDS011;12743;52.262;6.172;2023-06-04T06:10:53;5.80;;;2.15;;
24585;SDS011;12743;52.262;6.172;2023-06-04T06:13:20;6.88;;;2.13;;
24585;SDS011;12743;52.262;6.172;2023-06-04T06:15:47;8.20;;;1.85;;
24585;SDS011;12743;52.262;6.172;2023-06-04T06:18:19;8.53;;;2.10;;
24585;SDS011;12743;52.262;6.172;2023-06-04T06:20:46;6.25;;;1.90;;
24585;SDS011;12743;52.262;6.172;2023-06-04T06:23:13;8.00;;;2.03;;
24585;SDS011;12743;52.262;6.172;2023-06-04T06:25:43;6.78;;;1.90;;
24585;SDS011;12743;52.262;6.172;2023-06-04T06:28:17;4.70;;;1.67;;
24585;SDS011;12743;52.262;6.172;2023-06-04T06:30:46;6.17;;;1.73;;
24585;SDS011;12743;52.262;6.172;2023-06-04T06:33:13;5.22;;;1.58;;
24585;SDS011;12743;52.262;6.172;2023-06-04T06:35:40;7.03;;;1.80;;
24585;SDS011;12743;52.262;6.172;2023-06-04T06:38:07;7.00;;;1.80;;
24585;SDS011;12743;52.262;6.172;2023-06-04T06:40:44;9.57;;;1.92;;
24585;SDS011;12743;52.262;6.172;2023-06-04T06:43:10;7.43;;;1.97;;
24585;SDS011;12743;52.262;6.172;2023-06-04T06:45:37;6.82;;;1.80;;
24585;SDS011;12743;52.262;6.172;2023-06-04T06:48:04;4.50;;;2.00;;
24585;SDS011;12743;52.262;6.172;2023-06-04T06:50:31;4.75;;;1.55;;
24585;SDS011;12743;52.262;6.172;2023-06-04T06:52:59;7.20;;;1.90;;
24585;SDS011;12743;52.262;6.172;2023-06-04T06:55:27;7.27;;;1.57;;
24585;SDS011;12743;52.262;6.172;2023-06-04T06:57:54;8.02;;;1.90;;
24585;SDS011;12743;52.262;6.172;2023-06-04T07:00:23;7.60;;;1.73;;
24585;SDS011;12743;52.262;6.172;2023-06-04T07:02:50;6.28;;;1.90;;
24585;SDS011;12743;52.262;6.172;2023-06-04T07:05:19;4.47;;;1.60;;
24585;SDS011;12743;52.262;6.172;2023-06-04T07:07:47;5.73;;;1.80;;
24585;SDS011;12743;52.262;6.172;2023-06-04T07:10:14;5.50;;;1.85;;
24585;SDS011;12743;52.262;6.172;2023-06-04T07:12:40;6.65;;;2.13;;
24585;SDS011;12743;52.262;6.172;2023-06-04T07:15:09;4.43;;;1.70;;
24585;SDS011;12743;52.262;6.172;2023-06-04T07:17:35;6.20;;;1.70;;
24585;SDS011;12743;52.262;6.172;2023-06-04T07:20:03;6.20;;;2.30;;
24585;SDS011;12743;52.262;6.172;2023-06-04T07:22:33;9.30;;;1.70;;
24585;SDS011;12743;52.262;6.172;2023-06-04T07:25:01;6.50;;;1.25;;
24585;SDS011;12743;52.262;6.172;2023-06-04T07:27:28;6.80;;;1.60;;
24585;SDS011;12743;52.262;6.172;2023-06-04T07:29:55;6.15;;;1.77;;
24585;SDS011;12743;52.262;6.172;2023-06-04T07:32:21;7.57;;;1.97;;
24585;SDS011;12743;52.262;6.172;2023-06-04T07:34:48;7.43;;;1.70;;
24585;SDS011;12743;52.262;6.172;2023-06-04T07:37:15;5.97;;;1.90;;
24585;SDS011;12743;52.262;6.172;2023-06-04T07:39:42;4.38;;;1.40;;
24585;SDS011;12743;52.262;6.172;2023-06-04T07:42:09;6.68;;;1.98;;
24585;SDS011;12743;52.262;6.172;2023-06-04T07:44:36;4.13;;;1.30;;
24585;SDS011;12743;52.262;6.172;2023-06-04T07:47:04;6.95;;;1.95;;
24585;SDS011;12743;52.262;6.172;2023-06-04T07:49:31;7.28;;;2.03;;
24585;SDS011;12743;52.262;6.172;2023-06-04T07:51:58;6.30;;;1.95;;
24585;SDS011;12743;52.262;6.172;2023-06-04T07:54:26;5.70;;;1.58;;
24585;SDS011;12743;52.262;6.172;2023-06-04T07:56:53;7.53;;;2.00;;
24585;SDS011;12743;52.262;6.172;2023-06-04T07:59:22;6.70;;;1.80;;
24585;SDS011;12743;52.262;6.172;2023-06-04T08:01:50;7.10;;;1.65;;
24585;SDS011;12743;52.262;6.172;2023-06-04T08:04:20;7.70;;;2.17;;
24585;SDS011;12743;52.262;6.172;2023-06-04T08:06:47;5.50;;;1.60;;
24585;SDS011;12743;52.262;6.172;2023-06-04T08:09:14;5.27;;;1.43;;
24585;SDS011;12743;52.262;6.172;2023-06-04T08:11:41;4.78;;;1.33;;
24585;SDS011;12743;52.262;6.172;2023-06-04T08:14:11;6.22;;;1.60;;
24585;SDS011;12743;52.262;6.172;2023-06-04T08:16:39;7.25;;;1.20;;
24585;SDS011;12743;52.262;6.172;2023-06-04T08:19:07;7.72;;;1.48;;
24585;SDS011;12743;52.262;6.172;2023-06-04T08:21:34;7.73;;;1.53;;
24585;SDS011;12743;52.262;6.172;2023-06-04T08:24:02;5.85;;;1.30;;
24585;SDS011;12743;52.262;6.172;2023-06-04T08:26:29;3.70;;;1.20;;
24585;SDS011;12743;52.262;6.172;2023-06-04T08:28:57;4.85;;;1.33;;
24585;SDS011;12743;52.262;6.172;2023-06-04T08:31:23;5.95;;;1.20;;
24585;SDS011;12743;52.262;6.172;2023-06-04T08:33:50;4.37;;;1.13;;
24585;SDS011;12743;52.262;6.172;2023-06-04T08:36:17;4.97;;;1.08;;
24585;SDS011;12743;52.262;6.172;2023-06-04T08:38:44;4.55;;;0.85;;
24585;SDS011;12743;52.262;6.172;2023-06-04T08:41:29;3.40;;;0.80;;
24585;SDS011;12743;52.262;6.172;2023-06-04T08:44:08;4.40;;;0.90;;
24585;SDS011;12743;52.262;6.172;2023-06-04T08:46:39;6.67;;;1.30;;
24585;SDS011;12743;52.262;6.172;2023-06-04T08:49:07;4.72;;;1.00;;
24585;SDS011;12743;52.262;6.172;2023-06-04T08:51:35;5.13;;;0.90;;
24585;SDS011;12743;52.262;6.172;2023-06-04T08:54:07;3.33;;;1.05;;
24585;SDS011;12743;52.262;6.172;2023-06-04T08:56:38;4.25;;;1.00;;
24585;SDS011;12743;52.262;6.172;2023-06-04T08:59:05;4.63;;;1.00;;
24585;SDS011;12743;52.262;6.172;2023-06-04T09:01:34;3.65;;;0.55;;
24585;SDS011;12743;52.262;6.172;2023-06-04T09:04:04;4.60;;;1.00;;
24585;SDS011;12743;52.262;6.172;2023-06-04T09:06:35;5.00;;;1.10;;
24585;SDS011;12743;52.262;6.172;2023-06-04T09:09:04;6.30;;;1.30;;
24585;SDS011;12743;52.262;6.172;2023-06-04T09:11:35;3.07;;;1.00;;
24585;SDS011;12743;52.262;6.172;2023-06-04T09:14:09;3.75;;;0.80;;
24585;SDS011;12743;52.262;6.172;2023-06-04T09:16:47;4.88;;;0.98;;
24585;SDS011;12743;52.262;6.172;2023-06-04T09:19:16;4.88;;;0.90;;
24585;SDS011;12743;52.262;6.172;2023-06-04T09:21:53;3.67;;;0.80;;
24585;SDS011;12743;52.262;6.172;2023-06-04T09:24:39;3.47;;;0.67;;
24585;SDS011;12743;52.262;6.172;2023-06-04T09:27:14;2.70;;;0.57;;
24585;SDS011;12743;52.262;6.172;2023-06-04T09:29:59;3.85;;;0.90;;
24585;SDS011;12743;52.262;6.172;2023-06-04T09:32:29;3.22;;;0.70;;
24585;SDS011;12743;52.262;6.172;2023-06-04T09:37:38;3.60;;;0.90;;
24585;SDS011;12743;52.262;6.172;2023-06-04T09:40:06;4.25;;;0.57;;
24585;SDS011;12743;52.262;6.172;2023-06-04T09:42:46;4.97;;;1.15;;
24585;SDS011;12743;52.262;6.172;2023-06-04T09:45:30;4.22;;;0.65;;
24585;SDS011;12743;52.262;6.172;2023-06-04T09:47:58;2.35;;;0.80;;
24585;SDS011;12743;52.262;6.172;2023-06-04T09:50:26;3.87;;;0.73;;
24585;SDS011;12743;52.262;6.172;2023-06-04T09:52:54;4.72;;;0.80;;
24585;SDS011;12743;52.262;6.172;2023-06-04T09:55:21;2.75;;;0.68;;
24585;SDS011;12743;52.262;6.172;2023-06-04T09:57:49;3.30;;;0.70;;
24585;SDS011;12743;52.262;6.172;2023-06-04T10:00:17;1.85;;;0.57;;
24585;SDS011;12743;52.262;6.172;2023-06-04T10:02:47;4.13;;;0.50;;
24585;SDS011;12743;52.262;6.172;2023-06-04T10:05:15;6.05;;;0.50;;
24585;SDS011;12743;52.262;6.172;2023-06-04T10:07:42;3.20;;;0.55;;
24585;SDS011;12743;52.262;6.172;2023-06-04T10:10:11;3.13;;;0.40;;
24585;SDS011;12743;52.262;6.172;2023-06-04T10:12:42;3.03;;;0.70;;
24585;SDS011;12743;52.262;6.172;2023-06-04T10:15:11;4.77;;;0.53;;
24585;SDS011;12743;52.262;6.172;2023-06-04T10:17:39;3.28;;;0.70;;
24585;SDS011;12743;52.262;6.172;2023-06-04T10:20:07;2.58;;;0.50;;
24585;SDS011;12743;52.262;6.172;2023-06-04T10:22:35;2.45;;;0.57;;
24585;SDS011;12743;52.262;6.172;2023-06-04T10:25:02;2.85;;;0.63;;
24585;SDS011;12743;52.262;6.172;2023-06-04T10:27:30;3.93;;;0.70;;
24585;SDS011;12743;52.262;6.172;2023-06-04T10:29:58;2.95;;;0.60;;
24585;SDS011;12743;52.262;6.172;2023-06-04T10:32:28;4.10;;;0.80;;
24585;SDS011;12743;52.262;6.172;2023-06-04T10:34:55;2.97;;;0.70;;
24585;SDS011;12743;52.262;6.172;2023-06-04T10:37:24;6.15;;;0.60;;
24585;SDS011;12743;52.262;6.172;2023-06-04T10:39:52;2.83;;;0.60;;
24585;SDS011;12743;52.262;6.172;2023-06-04T10:42:19;3.95;;;0.50;;
24585;SDS011;12743;52.262;6.172;2023-06-04T10:44:49;2.67;;;0.50;;
24585;SDS011;12743;52.262;6.172;2023-06-04T10:47:27;4.68;;;0.52;;
24585;SDS011;12743;52.262;6.172;2023-06-04T10:50:06;2.17;;;0.50;;
24585;SDS011;12743;52.262;6.172;2023-06-04T10:52:36;1.83;;;0.50;;
24585;SDS011;12743;52.262;6.172;2023-06-04T10:55:04;4.05;;;0.60;;
24585;SDS011;12743;52.262;6.172;2023-06-04T10:57:31;2.67;;;0.50;;
24585;SDS011;12743;52.262;6.172;2023-06-04T10:59:59;4.35;;;0.57;;
24585;SDS011;12743;52.262;6.172;2023-06-04T11:02:32;3.95;;;0.75;;
24585;SDS011;12743;52.262;6.172;2023-06-04T11:04:59;3.70;;;0.80;;
24585;SDS011;12743;52.262;6.172;2023-06-04T11:07:40;4.20;;;0.50;;
24585;SDS011;12743;52.262;6.172;2023-06-04T11:10:12;2.97;;;1.08;;
24585;SDS011;12743;52.262;6.172;2023-06-04T11:15:16;5.05;;;0.68;;
24585;SDS011;12743;52.262;6.172;2023-06-04T11:17:53;2.93;;;0.60;;
24585;SDS011;12743;52.262;6.172;2023-06-04T11:20:22;3.00;;;0.70;;
24585;SDS011;12743;52.262;6.172;2023-06-04T11:22:50;2.65;;;0.40;;
24585;SDS011;12743;52.262;6.172;2023-06-04T11:25:17;4.43;;;0.73;;
24585;SDS011;12743;52.262;6.172;2023-06-04T11:27:44;2.60;;;0.70;;
24585;SDS011;12743;52.262;6.172;2023-06-04T11:30:11;6.83;;;0.90;;
24585;SDS011;12743;52.262;6.172;2023-06-04T11:32:40;3.83;;;0.75;;
24585;SDS011;12743;52.262;6.172;2023-06-04T11:35:06;2.60;;;0.60;;
24585;SDS011;12743;52.262;6.172;2023-06-04T11:37:33;3.95;;;0.60;;
24585;SDS011;12743;52.262;6.172;2023-06-04T11:40:01;2.03;;;0.60;;
24585;SDS011;12743;52.262;6.172;2023-06-04T11:42:28;2.70;;;0.60;;
24585;SDS011;12743;52.262;6.172;2023-06-04T11:44:56;5.72;;;0.80;;
24585;SDS011;12743;52.262;6.172;2023-06-04T11:47:23;2.97;;;0.50;;
24585;SDS011;12743;52.262;6.172;2023-06-04T11:49:54;2.58;;;0.70;;
24585;SDS011;12743;52.262;6.172;2023-06-04T11:52:22;2.85;;;0.68;;
24585;SDS011;12743;52.262;6.172;2023-06-04T11:54:49;2.60;;;0.67;;
24585;SDS011;12743;52.262;6.172;2023-06-04T11:57:16;2.72;;;0.70;;
24585;SDS011;12743;52.262;6.172;2023-06-04T11:59:43;2.90;;;0.98;;
24585;SDS011;12743;52.262;6.172;2023-06-04T12:02:11;2.65;;;1.05;;
24585;SDS011;12743;52.262;6.172;2023-06-04T12:04:38;4.38;;;0.90;;
24585;SDS011;12743;52.262;6.172;2023-06-04T12:07:05;5.27;;;0.80;;
24585;SDS011;12743;52.262;6.172;2023-06-04T12:09:32;3.30;;;0.90;;
24585;SDS011;12743;52.262;6.172;2023-06-04T12:12:05;3.05;;;0.90;;
24585;SDS011;12743;52.262;6.172;2023-06-04T12:14:34;3.85;;;1.02;;
24585;SDS011;12743;52.262;6.172;2023-06-04T12:17:02;3.50;;;0.80;;
24585;SDS011;12743;52.262;6.172;2023-06-04T12:19:32;3.17;;;0.87;;
24585;SDS011;12743;52.262;6.172;2023-06-04T12:24:32;3.17;;;1.00;;
24585;SDS011;12743;52.262;6.172;2023-06-04T12:27:04;3.38;;;0.88;;
24585;SDS011;12743;52.262;6.172;2023-06-04T12:29:33;2.55;;;0.80;;
24585;SDS011;12743;52.262;6.172;2023-06-04T12:32:01;2.73;;;0.93;;
24585;SDS011;12743;52.262;6.172;2023-06-04T12:34:38;1.63;;;0.68;;
24585;SDS011;12743;52.262;6.172;2023-06-04T12:37:07;2.55;;;0.80;;
24585;SDS011;12743;52.262;6.172;2023-06-04T12:39:34;3.35;;;0.90;;
24585;SDS011;12743;52.262;6.172;2023-06-04T12:42:07;3.05;;;1.00;;
24585;SDS011;12743;52.262;6.172;2023-06-04T12:44:35;2.70;;;0.67;;
24585;SDS011;12743;52.262;6.172;2023-06-04T12:47:02;2.90;;;0.93;;
24585;SDS011;12743;52.262;6.172;2023-06-04T12:49:29;3.53;;;0.85;;
24585;SDS011;12743;52.262;6.172;2023-06-04T12:51:56;3.30;;;1.25;;
24585;SDS011;12743;52.262;6.172;2023-06-04T12:54:23;3.95;;;1.00;;
24585;SDS011;12743;52.262;6.172;2023-06-04T12:56:50;6.37;;;1.10;;
24585;SDS011;12743;52.262;6.172;2023-06-04T12:59:16;2.20;;;0.82;;
24585;SDS011;12743;52.262;6.172;2023-06-04T13:01:43;3.35;;;0.95;;
24585;SDS011;12743;52.262;6.172;2023-06-04T13:04:10;2.47;;;0.90;;
24585;SDS011;12743;52.262;6.172;2023-06-04T13:06:37;3.38;;;1.05;;
24585;SDS011;12743;52.262;6.172;2023-06-04T13:09:04;4.83;;;1.23;;
24585;SDS011;12743;52.262;6.172;2023-06-04T13:11:38;2.42;;;0.98;;
24585;SDS011;12743;52.262;6.172;2023-06-04T13:14:06;3.92;;;0.80;;
24585;SDS011;12743;52.262;6.172;2023-06-04T13:16:33;1.95;;;0.80;;
24585;SDS011;12743;52.262;6.172;2023-06-04T13:19:00;3.00;;;1.10;;
24585;SDS011;12743;52.262;6.172;2023-06-04T13:21:28;3.07;;;1.10;;
24585;SDS011;12743;52.262;6.172;2023-06-04T13:23:55;3.60;;;1.00;;
24585;SDS011;12743;52.262;6.172;2023-06-04T13:26:22;5.93;;;1.15;;
24585;SDS011;12743;52.262;6.172;2023-06-04T13:28:49;4.90;;;1.17;;
24585;SDS011;12743;52.262;6.172;2023-06-04T13:31:15;3.75;;;1.10;;
24585;SDS011;12743;52.262;6.172;2023-06-04T13:33:42;3.37;;;1.10;;
24585;SDS011;12743;52.262;6.172;2023-06-04T13:36:09;3.65;;;1.15;;
24585;SDS011;12743;52.262;6.172;2023-06-04T13:38:36;5.30;;;1.42;;
24585;SDS011;12743;52.262;6.172;2023-06-04T13:41:02;3.88;;;1.45;;
24585;SDS011;12743;52.262;6.172;2023-06-04T13:43:29;3.33;;;1.20;;
24585;SDS011;12743;52.262;6.172;2023-06-04T13:45:55;4.40;;;0.90;;
24585;SDS011;12743;52.262;6.172;2023-06-04T13:48:22;3.63;;;1.20;;
24585;SDS011;12743;52.262;6.172;2023-06-04T13:50:49;4.68;;;1.02;;
24585;SDS011;12743;52.262;6.172;2023-06-04T13:53:16;3.83;;;1.42;;
24585;SDS011;12743;52.262;6.172;2023-06-04T13:55:42;4.85;;;1.42;;
24585;SDS011;12743;52.262;6.172;2023-06-04T13:58:09;4.47;;;1.10;;
24585;SDS011;12743;52.262;6.172;2023-06-04T14:00:36;4.68;;;1.00;;
24585;SDS011;12743;52.262;6.172;2023-06-04T14:03:03;3.83;;;1.30;;
24585;SDS011;12743;52.262;6.172;2023-06-04T14:05:30;3.05;;;1.10;;
24585;SDS011;12743;52.262;6.172;2023-06-04T14:07:57;2.90;;;1.15;;
24585;SDS011;12743;52.262;6.172;2023-06-04T14:10:24;3.07;;;1.10;;
24585;SDS011;12743;52.262;6.172;2023-06-04T14:12:51;5.45;;;1.30;;
24585;SDS011;12743;52.262;6.172;2023-06-04T14:15:18;3.33;;;1.20;;
24585;SDS011;12743;52.262;6.172;2023-06-04T14:17:44;4.35;;;1.13;;
24585;SDS011;12743;52.262;6.172;2023-06-04T14:20:11;6.70;;;2.97;;
24585;SDS011;12743;52.262;6.172;2023-06-04T14:22:38;3.73;;;1.37;;
24585;SDS011;12743;52.262;6.172;2023-06-04T14:25:06;4.50;;;1.27;;
24585;SDS011;12743;52.262;6.172;2023-06-04T14:27:34;3.70;;;1.30;;
24585;SDS011;12743;52.262;6.172;2023-06-04T14:30:02;2.35;;;1.20;;
24585;SDS011;12743;52.262;6.172;2023-06-04T14:32:29;3.53;;;1.05;;
24585;SDS011;12743;52.262;6.172;2023-06-04T14:34:56;4.87;;;1.50;;
24585;SDS011;12743;52.262;6.172;2023-06-04T14:37:23;4.20;;;1.20;;
24585;SDS011;12743;52.262;6.172;2023-06-04T14:39:50;4.68;;;1.50;;
24585;SDS011;12743;52.262;6.172;2023-06-04T14:42:17;3.75;;;1.35;;
24585;SDS011;12743;52.262;6.172;2023-06-04T14:44:44;4.28;;;1.48;;
24585;SDS011;12743;52.262;6.172;2023-06-04T14:47:12;3.00;;;1.30;;
24585;SDS011;12743;52.262;6.172;2023-06-04T14:49:38;5.57;;;1.80;;
24585;SDS011;12743;52.262;6.172;2023-06-04T14:52:05;4.63;;;2.15;;
24585;SDS011;12743;52.262;6.172;2023-06-04T14:54:33;3.95;;;1.40;;
24585;SDS011;12743;52.262;6.172;2023-06-04T14:57:01;3.83;;;1.50;;
24585;SDS011;12743;52.262;6.172;2023-06-04T14:59:29;3.43;;;1.30;;
24585;SDS011;12743;52.262;6.172;2023-06-04T15:01:56;4.50;;;1.50;;
24585;SDS011;12743;52.262;6.172;2023-06-04T15:04:23;4.18;;;1.50;;